»·PEaware :: ADB525 KSEA-KBOI

ADB525 :: KSEA-KBOI

FLIGHT INFORMATION

Flight Status: Arrived
Operator:
Antonov Design Bureau
More flights by this operator :: More flights under this callsign
Pilot: Kim B. (19519)
Aircraft: ANTONOV AN-225 MRYIA
(A225)
More flights by this aircraft type
Origin: KSEA Seattle-Tacoma Intl
United States
Destination: KBOI Boise Air Terminal/Gowen
United States
More flights between these airports :: More routes between these airports
Route: SUMMA1 SUMMA J54 BKE DEVLE KYAAN3
File this flight plan on PilotEdge
Remarks:
Altitude:
(Current/Filed)
29,000ft
Speed:
(Current/Filed)
460kts
Departed: 18-Nov-18 12:33 PM
Arrived: 18-Nov-18 01:40 PM
Distance/Time
Traveled:
346nm/1:07
Distance/Time
To Go:
Arrived

Flight Plot

Page will automatically refresh every two minutes.


Map Options




Map Legend


Flown Route
Filed Route
Departure Airport
Arrival Airport
Navaid (VOR, NDB)
Fix

Horizontal Profiles

Position Reports

Time Latitude Longitude Heading Altitude Ground
Speed
18-Nov-18 12:17 47.461092 -122.301541 180 481ft 0kts
18-Nov-18 12:18 47.461092 -122.301541 180 481ft 0kts
18-Nov-18 12:19 47.461092 -122.301541 180 481ft 0kts
18-Nov-18 12:20 47.461092 -122.301541 180 481ft 0kts
18-Nov-18 12:21 47.461092 -122.301541 180 481ft 0kts
18-Nov-18 12:22 47.461092 -122.301541 180 481ft 0kts
18-Nov-18 12:23 47.461092 -122.301541 180 481ft 0kts
18-Nov-18 12:24 47.461092 -122.301541 180 481ft 0kts
18-Nov-18 12:25 47.461092 -122.301541 180 481ft 0kts
18-Nov-18 12:26 47.461092 -122.301541 180 481ft 0kts
18-Nov-18 12:27 47.461092 -122.301541 180 481ft 0kts
18-Nov-18 12:28 47.461092 -122.301541 180 481ft 0kts
18-Nov-18 12:29 47.461092 -122.301541 180 481ft 0kts
18-Nov-18 12:30 47.461184 -122.301551 190 481ft 2kts
18-Nov-18 12:31 47.461752 -122.300818 269 475ft 0kts
18-Nov-18 12:32 47.461752 -122.300900 269 475ft 2kts
18-Nov-18 12:33 47.461756 -122.303236 269 473ft 0kts
18-Nov-18 12:34 47.461756 -122.303244 269 473ft 1kts
18-Nov-18 12:35 47.459028 -122.306172 180 460ft 35kts
18-Nov-18 12:36 47.443972 -122.306325 181 405ft 64kts
18-Nov-18 12:37 47.436656 -122.307713 330 377ft 15kts
18-Nov-18 12:38 47.438057 -122.309740 262 379ft 0kts
18-Nov-18 12:39 47.438057 -122.309740 262 379ft 0kts
18-Nov-18 12:40 47.438591 -122.311142 359 379ft 0kts
18-Nov-18 12:41 47.447368 -122.311167 0 413ft 119kts
18-Nov-18 12:42 47.497561 -122.310177 359 2015ft 218kts
18-Nov-18 12:43 47.559023 -122.309981 358 4066ft 226kts
18-Nov-18 12:44 47.598761 -122.247613 98 5346ft 270kts
18-Nov-18 12:45 47.586680 -122.137503 92 7218ft 278kts
18-Nov-18 12:46 47.580144 -122.035655 93 8867ft 286kts
18-Nov-18 12:47 47.530272 -121.971662 171 9922ft 293kts
18-Nov-18 12:48 47.463919 -121.971908 180 11489ft 307kts
18-Nov-18 12:49 47.401312 -121.973944 180 12968ft 311kts
18-Nov-18 12:50 47.353337 -121.975550 179 14063ft 310kts
18-Nov-18 12:51 47.284289 -121.977606 179 15573ft 306kts
18-Nov-18 12:52 47.209725 -121.991515 192 17149ft 301kts
18-Nov-18 12:53 47.121939 -122.024601 194 18601ft 365kts
18-Nov-18 12:54 47.018580 -122.063991 193 20545ft 424kts
18-Nov-18 12:55 46.921970 -121.994155 114 22203ft 452kts
18-Nov-18 12:56 46.903120 -121.847069 111 23607ft 462kts
18-Nov-18 12:57 46.822705 -121.670178 124 25685ft 472kts
18-Nov-18 12:58 46.762732 -121.545192 124 26630ft 467kts
18-Nov-18 12:59 46.676155 -121.365728 124 28006ft 465kts
18-Nov-18 13:00 46.618094 -121.246016 125 28925ft 463kts
18-Nov-18 13:01 46.531693 -121.068805 125 28999ft 461kts
18-Nov-18 13:02 46.470735 -120.944447 125 28999ft 461kts
18-Nov-18 13:03 46.397918 -120.796617 125 28999ft 461kts
18-Nov-18 13:04 46.324361 -120.648072 125 28999ft 461kts
18-Nov-18 13:05 46.256719 -120.512166 125 28999ft 461kts
18-Nov-18 13:06 46.185482 -120.369744 125 28999ft 461kts
18-Nov-18 13:07 46.111687 -120.222971 125 28999ft 461kts
18-Nov-18 13:08 46.036366 -120.073945 125 28999ft 461kts
18-Nov-18 13:09 45.960736 -119.925096 125 28999ft 461kts
18-Nov-18 13:10 45.886637 -119.780012 125 28999ft 461kts
18-Nov-18 13:11 45.814265 -119.639039 125 28999ft 461kts
18-Nov-18 13:12 45.744924 -119.504623 125 28999ft 461kts
18-Nov-18 13:13 45.671359 -119.362714 125 28999ft 461kts
18-Nov-18 13:14 45.595729 -119.217561 126 28999ft 461kts
18-Nov-18 13:15 45.518945 -119.070951 126 28999ft 461kts
18-Nov-18 13:16 45.442019 -118.924828 126 28999ft 461kts
18-Nov-18 13:17 45.364857 -118.779007 126 28999ft 461kts
18-Nov-18 13:18 45.287561 -118.633680 126 28999ft 461kts
18-Nov-18 13:19 45.210265 -118.489091 126 28999ft 461kts
18-Nov-18 13:20 45.134413 -118.347914 127 28998ft 461kts
18-Nov-18 13:21 45.056869 -118.204311 127 28999ft 461kts
18-Nov-18 13:22 44.987158 -118.075849 126 28768ft 482kts
18-Nov-18 13:23 44.905452 -117.925936 126 27692ft 482kts
18-Nov-18 13:24 44.820106 -117.781916 144 26054ft 484kts
18-Nov-18 13:25 44.704834 -117.685628 147 24548ft 486kts
18-Nov-18 13:26 44.592622 -117.585369 147 22657ft 468kts
18-Nov-18 13:27 44.485106 -117.489733 148 20454ft 451kts
18-Nov-18 13:28 44.381096 -117.397625 148 18253ft 436kts
18-Nov-18 13:29 44.280731 -117.309129 149 16923ft 425kts
18-Nov-18 13:30 44.184107 -117.213950 135 16463ft 429kts
18-Nov-18 13:31 44.100323 -117.102272 137 14250ft 411kts
18-Nov-18 13:32 44.018163 -116.995136 137 12041ft 399kts
18-Nov-18 13:33 43.945391 -116.884027 121 9822ft 379kts
18-Nov-18 13:34 43.898046 -116.784938 123 8083ft 282kts
18-Nov-18 13:35 43.853973 -116.694439 124 8087ft 284kts
18-Nov-18 13:36 43.802401 -116.615316 146 7475ft 274kts
18-Nov-18 13:37 43.743037 -116.552869 143 5975ft 264kts
18-Nov-18 13:38 43.686439 -116.492866 142 5014ft 235kts
18-Nov-18 13:39 43.636607 -116.439556 133 5015ft 227kts
18-Nov-18 13:40 43.610822 -116.361549 114 4430ft 228kts
18-Nov-18 13:41 43.585849 -116.288904 113 3639ft 180kts
18-Nov-18 13:42 43.567203 -116.234329 114 2863ft 140kts
18-Nov-18 13:43 43.560882 -116.216949 165 2861ft 3kts
18-Nov-18 13:44 43.560356 -116.217139 217 2861ft 0kts
18-Nov-18 13:45 43.560751 -116.219302 295 2861ft 23kts
18-Nov-18 13:46 43.560900 -116.223001 152 2860ft 16kts
18-Nov-18 13:47 43.560845 -116.221871 23 2861ft 0kts
18-Nov-18 13:48 43.560845 -116.221871 23 2861ft 0kts
18-Nov-18 13:49 43.560845 -116.221871 23 2861ft 0kts
18-Nov-18 13:50 43.560845 -116.221871 23 2861ft 0kts
18-Nov-18 13:51 43.560845 -116.221871 23 2861ft 0kts
18-Nov-18 13:52 43.560845 -116.221871 23 2861ft 0kts
18-Nov-18 13:53 43.560845 -116.221871 23 2861ft 0kts
18-Nov-18 13:54 43.560845 -116.221871 23 2861ft 0kts
18-Nov-18 13:55 43.560845 -116.221871 23 2861ft 0kts
18-Nov-18 13:56 43.560845 -116.221871 23 2861ft 0kts
18-Nov-18 13:57 43.560845 -116.221871 23 2861ft 0kts
18-Nov-18 13:58 43.560845 -116.221871 23 2861ft 0kts

Navigation Log

Ident Type
Flight plan parsing failed, navigation log unavailable